Augusta, Michigan
Current Conditions -  °F | °C
As of 5:53 AM on Saturday 25 Oct 2014 (Local Time) from KBTL Reporting Station
Broken Clouds Broken Clouds  
Wind Chill: 12°   Ceiling: 3300
Heat Index: 12°   Visibility: 10mi
Dew Point:   Wind: 9mph
Humidity: 83%   Direction: 230°SW
Pressure: 29.87"   Gusts: NA
Location:  42.34°N, 85.35°W
Report Text: KBTL 250953Z 23008KT 10SM BKN033 12/09 A2987 RMK AO2 SLP117 T01170089
Loading
Personal Weather Stations






























Interactive Weather Map
Tropical Storm Tracking
New forecast layout! Learn more

10-Day Weather Forecast

Advertisements
Track Severe Weather on mobile